createdAt,value
2023-05-24T00:02:16.507Z,9.65
2023-05-24T00:04:46.645Z,9.62
2023-05-24T00:07:16.714Z,9.53
2023-05-24T00:09:46.460Z,9.49
2023-05-24T00:12:16.616Z,9.44
2023-05-24T00:14:48.944Z,9.40
2023-05-24T00:17:21.022Z,9.34
2023-05-24T00:19:50.953Z,9.30
2023-05-24T00:22:21.456Z,9.25
2023-05-24T00:24:51.660Z,9.17
2023-05-24T00:27:21.390Z,9.12
2023-05-24T00:29:53.734Z,9.05
2023-05-24T00:32:24.428Z,9.00
2023-05-24T00:34:54.233Z,8.92
2023-05-24T00:37:23.922Z,8.86
2023-05-24T00:39:53.696Z,8.83
2023-05-24T00:42:23.404Z,8.78
2023-05-24T00:44:55.746Z,8.74
2023-05-24T00:47:25.656Z,8.69
2023-05-24T00:49:55.512Z,8.65
2023-05-24T00:52:25.701Z,8.62
2023-05-24T00:54:55.524Z,8.59
2023-05-24T00:57:25.258Z,8.55
2023-05-24T00:59:58.431Z,8.51
2023-05-24T01:02:28.437Z,8.45
2023-05-24T01:05:00.126Z,8.43
2023-05-24T01:07:37.997Z,8.36
2023-05-24T01:10:13.192Z,8.31
2023-05-24T01:12:53.833Z,8.31
2023-05-24T01:15:31.317Z,8.26
2023-05-24T01:18:06.181Z,8.20
2023-05-24T01:20:38.719Z,8.16
2023-05-24T01:23:13.390Z,8.12
2023-05-24T01:25:54.864Z,8.10
2023-05-24T01:28:27.576Z,8.04
2023-05-24T01:30:57.880Z,8.02
2023-05-24T01:33:27.677Z,7.99
2023-05-24T01:35:59.793Z,7.95
2023-05-24T01:38:29.545Z,7.92
2023-05-24T01:41:03.088Z,7.89
2023-05-24T01:43:41.177Z,7.82
2023-05-24T01:46:19.399Z,7.81
2023-05-24T01:48:56.257Z,7.78
2023-05-24T01:51:27.945Z,7.76
2023-05-24T01:53:58.155Z,7.73
2023-05-24T01:56:29.677Z,7.67
2023-05-24T01:59:02.270Z,7.64
2023-05-24T02:01:33.296Z,7.56
2023-05-24T02:04:03.246Z,7.53
2023-05-24T02:06:32.922Z,7.51
2023-05-24T02:09:02.836Z,7.50
2023-05-24T02:11:32.692Z,7.43
2023-05-24T02:14:05.014Z,7.42
2023-05-24T02:16:34.907Z,7.38
2023-05-24T02:19:05.774Z,7.36
2023-05-24T02:21:36.566Z,7.32
2023-05-24T02:24:07.863Z,7.32
2023-05-24T02:26:37.642Z,7.27
2023-05-24T02:29:09.975Z,7.24
2023-05-24T02:31:39.994Z,7.18
2023-05-24T02:34:09.734Z,7.17
2023-05-24T02:36:39.601Z,7.15
2023-05-24T02:39:09.309Z,7.10
2023-05-24T02:41:39.474Z,7.09
2023-05-24T02:44:11.936Z,7.03
2023-05-24T02:46:41.753Z,7.02
2023-05-24T02:49:11.661Z,6.99
2023-05-24T02:51:41.434Z,6.95
2023-05-24T02:54:11.136Z,6.90
2023-05-24T02:56:42.407Z,6.87
2023-05-24T02:59:15.098Z,6.84
2023-05-24T03:01:45.402Z,6.82
2023-05-24T03:04:15.167Z,6.81
2023-05-24T03:06:45.914Z,6.77
2023-05-24T03:09:16.931Z,6.74
2023-05-24T03:11:47.513Z,6.70
2023-05-24T03:14:22.728Z,6.68
2023-05-24T03:16:54.256Z,6.65
2023-05-24T03:19:24.175Z,6.65
2023-05-24T03:21:53.899Z,6.61
2023-05-24T03:24:23.630Z,6.62
2023-05-24T03:26:53.402Z,6.57
2023-05-24T03:29:25.880Z,6.56
2023-05-24T03:31:56.805Z,6.54
2023-05-24T03:34:26.950Z,6.51
2023-05-24T03:36:57.333Z,6.49
2023-05-24T03:39:27.043Z,6.48
2023-05-24T03:42:00.815Z,6.49
2023-05-24T03:44:33.143Z,6.45
2023-05-24T03:47:03.933Z,6.45
2023-05-24T03:49:34.988Z,6.44
2023-05-24T03:52:05.120Z,6.42
2023-05-24T03:54:34.954Z,6.41
2023-05-24T03:57:04.687Z,6.42
2023-05-24T03:59:38.762Z,6.44
2023-05-24T04:02:10.310Z,6.38
2023-05-24T04:04:40.102Z,6.39
2023-05-24T04:07:12.087Z,6.38
2023-05-24T04:09:42.082Z,6.37
2023-05-24T04:12:11.834Z,6.38
2023-05-24T04:14:47.282Z,6.36
2023-05-24T04:17:17.283Z,6.34
2023-05-24T04:19:47.203Z,6.32
2023-05-24T04:22:17.790Z,6.28
2023-05-24T04:24:48.008Z,6.26
2023-05-24T04:27:18.129Z,6.20
2023-05-24T04:29:53.352Z,6.20
2023-05-24T04:32:23.657Z,6.22
2023-05-24T04:34:53.418Z,6.25
2023-05-24T04:37:24.795Z,6.23
2023-05-24T04:39:54.671Z,6.24
2023-05-24T04:42:24.813Z,6.27
2023-05-24T04:44:57.200Z,6.26
2023-05-24T04:47:27.024Z,6.26
2023-05-24T04:49:56.823Z,6.30
2023-05-24T04:52:26.667Z,6.31
2023-05-24T04:54:58.100Z,6.30
2023-05-24T04:57:27.963Z,6.36
2023-05-24T05:00:00.315Z,6.38
2023-05-24T05:02:30.078Z,6.43
2023-05-24T05:04:59.821Z,6.48
2023-05-24T05:07:29.563Z,6.52
2023-05-24T05:09:59.411Z,6.58
2023-05-24T05:12:29.118Z,6.64
2023-05-24T05:15:01.497Z,6.73
2023-05-24T05:17:31.453Z,6.82
2023-05-24T05:20:01.216Z,6.88
2023-05-24T05:22:31.375Z,6.93
2023-05-24T05:25:01.127Z,7.01
2023-05-24T05:27:30.847Z,7.05
2023-05-24T05:30:03.221Z,7.11
2023-05-24T05:32:33.167Z,7.17
2023-05-24T05:35:03.014Z,7.22
2023-05-24T05:37:32.765Z,7.30
2023-05-24T05:40:02.438Z,7.38
2023-05-24T05:42:32.143Z,7.43
2023-05-24T05:45:04.449Z,7.46
2023-05-24T05:47:34.309Z,7.53
2023-05-24T05:50:04.101Z,7.56
2023-05-24T05:52:33.855Z,7.59
2023-05-24T05:55:03.724Z,7.62
2023-05-24T05:57:33.480Z,7.66
2023-05-24T06:00:06.229Z,7.68
2023-05-24T06:02:41.809Z,7.72
2023-05-24T06:05:13.926Z,7.79
2023-05-24T06:07:44.377Z,7.85
2023-05-24T06:10:14.816Z,7.92
2023-05-24T06:12:44.549Z,8.00
2023-05-24T06:15:16.982Z,8.08
2023-05-24T06:17:48.133Z,8.17
2023-05-24T06:20:18.172Z,8.28
2023-05-24T06:22:49.857Z,8.39
2023-05-24T06:25:21.139Z,8.52
2023-05-24T06:27:51.213Z,8.65
2023-05-24T06:30:23.695Z,8.77
2023-05-24T06:32:53.482Z,8.91
2023-05-24T06:35:23.293Z,9.02
2023-05-24T06:37:53.018Z,9.14
2023-05-24T06:40:22.753Z,9.25
2023-05-24T06:42:52.450Z,9.34
2023-05-24T06:45:24.770Z,9.40
2023-05-24T06:47:55.563Z,9.47
2023-05-24T06:50:25.386Z,9.56
2023-05-24T06:52:55.130Z,9.64
2023-05-24T06:55:25.079Z,9.72
2023-05-24T06:57:54.819Z,9.80
2023-05-24T07:00:28.037Z,9.88
2023-05-24T07:02:58.268Z,9.96
2023-05-24T07:05:28.031Z,10.08
2023-05-24T07:07:57.804Z,10.21
2023-05-24T07:10:27.657Z,10.30
2023-05-24T07:12:57.351Z,10.49
2023-05-24T07:15:29.737Z,10.60
2023-05-24T07:18:00.372Z,10.67
2023-05-24T07:20:30.212Z,10.67
2023-05-24T07:23:00.669Z,10.68
2023-05-24T07:25:30.454Z,10.72
2023-05-24T07:28:00.221Z,10.73
2023-05-24T07:30:33.114Z,10.79
2023-05-24T07:33:03.422Z,10.81
2023-05-24T07:35:33.196Z,10.85
2023-05-24T07:38:02.910Z,10.95
2023-05-24T07:40:32.689Z,11.00
2023-05-24T07:43:04.022Z,11.05
2023-05-24T07:45:36.864Z,11.25
2023-05-24T07:48:06.941Z,11.46
2023-05-24T07:50:37.412Z,11.55
2023-05-24T07:53:07.487Z,11.59
2023-05-24T07:55:37.559Z,11.62
2023-05-24T07:58:07.318Z,11.63
2023-05-24T08:00:39.829Z,11.62
2023-05-24T08:03:09.649Z,11.72
2023-05-24T08:05:39.583Z,11.75
2023-05-24T08:08:09.762Z,11.80
2023-05-24T08:10:39.521Z,11.94
2023-05-24T08:13:09.262Z,12.14
2023-05-24T08:15:41.854Z,12.16
2023-05-24T08:18:11.799Z,12.27
2023-05-24T08:20:41.739Z,12.41
2023-05-24T08:23:11.726Z,12.50
2023-05-24T08:25:41.815Z,12.48
2023-05-24T08:28:11.961Z,12.48
2023-05-24T08:30:44.710Z,12.55
2023-05-24T08:33:14.605Z,12.53
2023-05-24T08:35:44.533Z,12.55
2023-05-24T08:38:14.375Z,12.58
2023-05-24T08:40:44.096Z,12.62
2023-05-24T08:43:14.658Z,12.60
2023-05-24T08:45:47.412Z,12.58
2023-05-24T08:48:18.518Z,12.60
2023-05-24T08:50:48.754Z,12.63
2023-05-24T08:53:18.739Z,12.64
2023-05-24T08:55:48.607Z,12.64
2023-05-24T08:58:19.771Z,12.66
2023-05-24T09:00:52.254Z,12.67
2023-05-24T09:03:22.488Z,12.72
2023-05-24T09:05:52.398Z,12.73
2023-05-24T09:08:22.852Z,12.75
2023-05-24T09:10:54.963Z,12.80
2023-05-24T09:13:26.620Z,12.89
2023-05-24T09:15:59.121Z,12.98
2023-05-24T09:18:28.949Z,13.10
2023-05-24T09:20:58.705Z,13.19
2023-05-24T09:23:29.038Z,13.28
2023-05-24T09:25:58.832Z,13.41
2023-05-24T09:28:28.544Z,13.47
2023-05-24T09:31:07.765Z,13.44
2023-05-24T09:33:38.316Z,13.49
2023-05-24T09:36:09.096Z,13.55
2023-05-24T09:38:38.892Z,13.57
2023-05-24T09:41:11.061Z,13.60
2023-05-24T09:43:51.104Z,13.65
2023-05-24T09:46:23.735Z,13.73
2023-05-24T09:49:00.739Z,13.82
2023-05-24T09:51:30.570Z,13.78
2023-05-24T09:54:00.729Z,13.80
2023-05-24T09:56:30.918Z,13.85
2023-05-24T09:59:02.351Z,13.91
2023-05-24T10:01:36.195Z,13.93
2023-05-24T10:04:09.388Z,13.92
2023-05-24T10:06:40.274Z,13.93
2023-05-24T10:09:10.377Z,13.93
2023-05-24T10:11:40.641Z,13.98
2023-05-24T10:14:12.606Z,14.02
2023-05-24T10:16:45.062Z,14.11
2023-05-24T10:19:14.835Z,14.22
2023-05-24T10:21:47.798Z,14.37
2023-05-24T10:24:20.530Z,14.41
2023-05-24T10:26:51.142Z,14.40
2023-05-24T10:29:30.681Z,14.39
2023-05-24T10:32:04.630Z,14.27
2023-05-24T10:34:34.456Z,14.19
2023-05-24T10:37:04.252Z,14.11
2023-05-24T10:39:36.198Z,14.08
2023-05-24T10:42:09.546Z,14.04
2023-05-24T10:44:40.072Z,13.97
2023-05-24T10:47:17.223Z,13.95
2023-05-24T10:49:54.382Z,13.92
2023-05-24T10:52:24.218Z,13.86
2023-05-24T10:55:08.207Z,13.80
2023-05-24T10:57:38.462Z,13.78
2023-05-24T11:03:11.893Z,13.82
2023-05-24T11:05:53.567Z,13.82
2023-05-24T11:08:28.357Z,13.84
2023-05-24T11:13:44.203Z,13.87
2023-05-24T11:16:38.205Z,13.81
2023-05-24T11:19:19.461Z,13.87
2023-05-24T11:21:50.192Z,13.88
2023-05-24T11:24:21.005Z,13.96
2023-05-24T11:26:50.819Z,14.00
2023-05-24T11:29:22.962Z,14.12
2023-05-24T11:31:54.480Z,14.13
2023-05-24T11:34:27.548Z,14.18
2023-05-24T11:36:57.452Z,14.20
2023-05-24T11:39:27.734Z,14.17
2023-05-24T11:41:57.476Z,14.19
2023-05-24T11:44:27.424Z,14.08
2023-05-24T11:47:01.173Z,14.12
2023-05-24T11:49:33.674Z,14.13
2023-05-24T11:52:04.278Z,14.18
2023-05-24T11:54:37.404Z,14.15
2023-05-24T11:57:08.404Z,14.24
2023-05-24T11:59:38.899Z,14.33
2023-05-24T12:02:09.534Z,14.30
2023-05-24T12:04:41.928Z,14.28
2023-05-24T12:07:15.498Z,14.24
2023-05-24T12:09:45.375Z,14.18
2023-05-24T12:12:15.145Z,14.14
2023-05-24T12:14:44.868Z,14.17
2023-05-24T12:17:19.386Z,14.20
2023-05-24T12:19:53.029Z,14.24
2023-05-24T12:22:22.852Z,14.28
2023-05-24T12:24:52.902Z,14.28
2023-05-24T12:27:25.075Z,14.27
2023-05-24T12:29:55.268Z,14.30
2023-05-24T12:32:25.216Z,14.28
2023-05-24T12:34:57.853Z,14.28
2023-05-24T12:37:28.194Z,14.30
2023-05-24T12:39:57.935Z,14.26
2023-05-24T12:42:29.433Z,14.27
2023-05-24T12:44:59.188Z,14.24
2023-05-24T12:47:29.117Z,14.27
2023-05-24T12:50:01.551Z,14.26
2023-05-24T12:52:31.324Z,14.26
2023-05-24T12:55:01.061Z,14.26
2023-05-24T12:57:31.252Z,14.25
2023-05-24T13:00:01.117Z,14.22
2023-05-24T13:02:30.838Z,14.23
2023-05-24T13:05:04.206Z,14.23
2023-05-24T13:07:34.090Z,14.25
2023-05-24T13:10:03.817Z,14.25
2023-05-24T13:12:33.549Z,14.26
2023-05-24T13:15:03.323Z,14.31
2023-05-24T13:17:33.063Z,14.32
2023-05-24T13:20:07.836Z,14.40
2023-05-24T13:22:38.029Z,14.45
2023-05-24T13:25:09.506Z,14.57
2023-05-24T13:27:39.234Z,14.65
2023-05-24T13:30:11.288Z,14.67
2023-05-24T13:32:41.561Z,14.76
2023-05-24T13:35:14.144Z,14.76
2023-05-24T13:37:43.878Z,14.87
2023-05-24T13:40:14.359Z,14.92
2023-05-24T13:42:44.111Z,14.97
2023-05-24T13:45:14.857Z,15.01
2023-05-24T13:47:44.875Z,15.05
2023-05-24T13:50:17.492Z,15.08
2023-05-24T13:52:47.304Z,15.10
2023-05-24T13:55:17.381Z,15.17
2023-05-24T13:57:51.821Z,15.18
2023-05-24T14:00:23.215Z,15.19
2023-05-24T14:02:53.703Z,15.24
2023-05-24T14:05:28.195Z,15.24
2023-05-24T14:08:00.512Z,15.24
2023-05-24T14:10:30.655Z,15.26
2023-05-24T14:13:20.777Z,15.24
2023-05-24T14:15:51.040Z,15.13
2023-05-24T14:18:21.358Z,15.13
2023-05-24T14:20:53.870Z,15.08
2023-05-24T14:23:23.765Z,15.07
2023-05-24T14:25:53.591Z,15.11
2023-05-24T14:28:23.396Z,14.99
2023-05-24T14:30:53.126Z,14.91
2023-05-24T14:33:23.496Z,14.88
2023-05-24T14:35:55.997Z,14.86
2023-05-24T14:38:26.157Z,14.85
2023-05-24T14:40:57.088Z,14.87
2023-05-24T14:43:26.872Z,14.84
2023-05-24T14:45:56.649Z,14.89
2023-05-24T14:48:26.457Z,14.92
2023-05-24T14:50:58.976Z,14.92
2023-05-24T14:53:28.836Z,14.95
2023-05-24T14:55:58.761Z,14.95
2023-05-24T14:58:28.809Z,14.94
2023-05-24T15:00:58.596Z,14.93
2023-05-24T15:03:28.764Z,14.95
2023-05-24T15:06:01.417Z,14.96
2023-05-24T15:08:31.140Z,15.10
2023-05-24T15:11:00.932Z,15.25
2023-05-24T15:13:31.284Z,15.28
2023-05-24T15:16:01.027Z,15.34
2023-05-24T15:18:32.774Z,15.36
2023-05-24T15:21:05.194Z,15.40
2023-05-24T15:23:35.098Z,15.42
2023-05-24T15:26:04.887Z,15.43
2023-05-24T15:28:34.655Z,15.43
2023-05-24T15:31:04.677Z,15.44
2023-05-24T15:33:35.028Z,15.44
2023-05-24T15:36:07.954Z,15.37
2023-05-24T15:38:38.899Z,15.37
2023-05-24T15:41:09.486Z,15.37
2023-05-24T15:43:39.851Z,15.36
2023-05-24T15:46:09.923Z,15.33
2023-05-24T15:48:39.894Z,15.31
2023-05-24T15:53:45.301Z,15.21
2023-05-24T15:56:15.048Z,15.24
2023-05-24T15:58:45.978Z,15.27
2023-05-24T16:01:15.793Z,15.30
2023-05-24T16:03:45.538Z,15.32
2023-05-24T16:06:18.127Z,15.36
2023-05-24T16:08:49.550Z,15.47
2023-05-24T16:11:21.747Z,15.53
2023-05-24T16:13:53.655Z,15.59
2023-05-24T16:16:23.934Z,15.69
2023-05-24T16:18:53.768Z,15.79
2023-05-24T16:21:28.432Z,15.90
2023-05-24T16:24:01.413Z,15.99
2023-05-24T16:26:32.320Z,16.11
2023-05-24T16:29:02.343Z,16.09
2023-05-24T16:31:33.213Z,16.08
2023-05-24T16:34:03.062Z,16.05
2023-05-24T16:36:35.455Z,16.03
2023-05-24T16:39:05.260Z,16.00
2023-05-24T16:41:37.857Z,16.00
2023-05-24T16:44:07.842Z,16.01
2023-05-24T16:46:37.652Z,15.98
2023-05-24T16:49:11.065Z,15.95
2023-05-24T16:51:43.591Z,15.94
2023-05-24T16:54:16.448Z,15.90
2023-05-24T16:56:46.440Z,15.92
2023-05-24T16:59:17.197Z,15.94
2023-05-24T17:01:50.479Z,15.95
2023-05-24T17:04:20.681Z,15.93
2023-05-24T17:06:53.085Z,15.91
2023-05-24T17:09:22.857Z,15.90
2023-05-24T17:11:52.667Z,15.90
2023-05-24T17:14:22.474Z,15.86
2023-05-24T17:16:52.314Z,15.82
2023-05-24T17:19:22.427Z,15.77
2023-05-24T17:21:54.812Z,15.79
2023-05-24T17:24:27.760Z,15.89
2023-05-24T17:26:57.634Z,15.87
2023-05-24T17:29:29.992Z,15.93
2023-05-24T17:31:59.966Z,15.98
2023-05-24T17:34:29.974Z,15.98
2023-05-24T17:37:02.782Z,15.91
2023-05-24T17:39:32.569Z,15.86
2023-05-24T17:42:03.159Z,15.84
2023-05-24T17:44:32.996Z,15.82
2023-05-24T17:47:02.842Z,15.76
2023-05-24T17:49:32.715Z,15.71
2023-05-24T17:52:05.173Z,15.66
2023-05-24T17:54:35.030Z,15.58
2023-05-24T17:57:04.793Z,15.52
2023-05-24T17:59:36.188Z,15.46
2023-05-24T18:02:06.459Z,15.39
2023-05-24T18:04:36.201Z,15.33
2023-05-24T18:07:08.526Z,15.25
2023-05-24T18:09:38.347Z,15.20
2023-05-24T18:12:08.889Z,15.14
2023-05-24T18:14:38.795Z,15.07
2023-05-24T18:17:09.434Z,15.03
2023-05-24T18:19:39.251Z,14.96
2023-05-24T18:22:11.936Z,14.89
2023-05-24T18:24:41.746Z,14.83
2023-05-24T18:27:11.505Z,14.80
2023-05-24T18:29:41.370Z,14.74
2023-05-24T18:32:11.225Z,14.69
2023-05-24T18:34:40.984Z,14.66
2023-05-24T18:37:13.616Z,14.61
2023-05-24T18:39:43.667Z,14.57
2023-05-24T18:42:13.613Z,14.52
2023-05-24T18:44:43.372Z,14.48
2023-05-24T18:47:13.688Z,14.43
2023-05-24T18:49:43.474Z,14.40
2023-05-24T18:52:16.006Z,14.36
2023-05-24T18:54:45.897Z,14.32
2023-05-24T18:57:15.697Z,14.27
2023-05-24T18:59:45.488Z,14.26
2023-05-24T19:02:15.261Z,14.23
2023-05-24T19:04:48.287Z,14.20
2023-05-24T19:07:20.734Z,14.15
2023-05-24T19:09:50.538Z,14.12
2023-05-24T19:12:20.312Z,14.09
2023-05-24T19:14:50.057Z,14.03
2023-05-24T19:17:20.060Z,14.00
2023-05-24T19:19:49.815Z,13.97
2023-05-24T19:22:22.297Z,13.93
2023-05-24T19:24:52.133Z,13.88
2023-05-24T19:27:22.003Z,13.86
2023-05-24T19:29:51.782Z,13.81
2023-05-24T19:32:22.453Z,13.77
2023-05-24T19:34:52.510Z,13.71
2023-05-24T19:37:24.864Z,13.72
2023-05-24T19:39:54.587Z,13.68
2023-05-24T19:42:24.311Z,13.64
2023-05-24T19:44:59.005Z,13.59
2023-05-24T19:47:29.017Z,13.56
2023-05-24T19:49:59.150Z,13.51
2023-05-24T19:52:31.758Z,13.46
2023-05-24T19:55:01.619Z,13.44
2023-05-24T19:57:31.393Z,13.38
2023-05-24T20:00:01.120Z,13.34
2023-05-24T20:02:30.979Z,13.30
2023-05-24T20:05:00.895Z,13.24
2023-05-24T20:07:33.230Z,13.20
2023-05-24T20:10:05.281Z,13.14
2023-05-24T20:12:35.154Z,13.07
2023-05-24T20:15:04.989Z,13.01
2023-05-24T20:17:34.872Z,12.96
2023-05-24T20:20:04.685Z,12.90
2023-05-24T20:22:37.081Z,12.83
2023-05-24T20:25:07.961Z,12.79
2023-05-24T20:27:37.798Z,12.73
2023-05-24T20:30:09.094Z,12.68
2023-05-24T20:32:38.834Z,12.63
2023-05-24T20:35:10.002Z,12.56
2023-05-24T20:37:42.457Z,12.51
2023-05-24T20:40:12.864Z,12.47
2023-05-24T20:42:42.581Z,12.43
2023-05-24T20:45:13.517Z,12.36
2023-05-24T20:47:43.340Z,12.31
2023-05-24T20:50:13.504Z,12.24
2023-05-24T20:52:46.287Z,12.20
2023-05-24T20:55:16.457Z,12.17
2023-05-24T20:57:46.177Z,12.07
2023-05-24T21:00:16.333Z,11.98
2023-05-24T21:02:46.174Z,11.92
2023-05-24T21:05:16.166Z,11.86
2023-05-24T21:07:48.511Z,11.78
2023-05-24T21:10:20.222Z,11.71
2023-05-24T21:12:50.775Z,11.64
2023-05-24T21:15:20.509Z,11.58
2023-05-24T21:17:50.269Z,11.52
2023-05-24T21:20:20.093Z,11.47
2023-05-24T21:22:52.642Z,11.43
2023-05-24T21:25:22.369Z,11.34
2023-05-24T21:27:52.039Z,11.30
2023-05-24T21:30:21.791Z,11.25
2023-05-24T21:32:51.565Z,11.18
2023-05-24T21:35:21.345Z,11.16
2023-05-24T21:37:54.171Z,11.11
2023-05-24T21:40:24.420Z,11.03
2023-05-24T21:42:54.138Z,11.00
2023-05-24T21:45:23.828Z,10.96
2023-05-24T21:47:53.563Z,10.89
2023-05-24T21:50:23.483Z,10.86
2023-05-24T21:52:55.832Z,10.79
2023-05-24T21:55:25.620Z,10.77
2023-05-24T21:57:55.334Z,10.71
2023-05-24T22:00:25.963Z,10.66
2023-05-24T22:02:55.902Z,10.63
2023-05-24T22:05:27.763Z,10.57
2023-05-24T22:08:00.517Z,10.57
2023-05-24T22:10:30.288Z,10.51
2023-05-24T22:12:59.985Z,10.43
2023-05-24T22:15:31.258Z,10.38
2023-05-24T22:18:01.612Z,10.31
2023-05-24T22:20:32.055Z,10.30
2023-05-24T22:23:04.464Z,10.25
2023-05-24T22:25:34.250Z,10.22
2023-05-24T22:28:04.018Z,10.20
2023-05-24T22:30:35.279Z,10.18
2023-05-24T22:33:05.140Z,10.12
2023-05-24T22:35:35.140Z,10.11
2023-05-24T22:38:07.513Z,10.06
2023-05-24T22:40:38.967Z,9.99
2023-05-24T22:43:08.718Z,9.95
2023-05-24T22:45:38.451Z,9.91
2023-05-24T22:48:08.329Z,9.86
2023-05-24T22:50:38.572Z,9.85
2023-05-24T22:53:11.062Z,9.80
2023-05-24T22:55:40.989Z,9.77
2023-05-24T22:58:10.775Z,9.78
2023-05-24T23:00:40.633Z,9.78
2023-05-24T23:03:12.068Z,9.77
2023-05-24T23:05:42.043Z,9.76
2023-05-24T23:08:15.531Z,9.74
2023-05-24T23:10:46.978Z,9.71
2023-05-24T23:13:17.834Z,9.70
2023-05-24T23:15:48.592Z,9.64
2023-05-24T23:18:22.581Z,9.66
2023-05-24T23:20:54.197Z,9.62
2023-05-24T23:23:27.473Z,9.65
2023-05-24T23:25:57.173Z,9.64
2023-05-24T23:28:26.931Z,9.64
2023-05-24T23:30:56.721Z,9.64
2023-05-24T23:33:26.481Z,9.63
2023-05-24T23:35:56.372Z,9.63
2023-05-24T23:38:28.725Z,9.60
2023-05-24T23:40:58.538Z,9.63
2023-05-24T23:43:28.225Z,9.60
2023-05-24T23:45:57.922Z,9.56
2023-05-24T23:48:27.695Z,9.51
2023-05-24T23:50:57.448Z,9.48
2023-05-24T23:53:29.764Z,9.46
2023-05-24T23:55:59.496Z,9.47
2023-05-24T23:58:29.189Z,9.46
